Time;durP1;ratioP1;P1;durP2;ratioP2;P2;SDS_P1;SDS_P2;PMS_P1;PMS_P2;Temp;Humidity;BMP_temperature;BMP_pressure;BME280_temperature;BME280_humidity;BME280_pressure;Samples;Min_cycle;Max_cycle;Signal;HPM_P1;HPM_P2
2022/11/17 00:02:00;;;;;;;1.88;1.00;;;;;16.20;98684.00;;;;5093312;28;20241;-78
2022/11/17 00:04:28;;;;;;;3.42;1.15;;;;;16.20;98690.00;;;;5094930;28;20198;-79
2022/11/17 00:06:56;;;;;;;3.47;1.40;;;;;16.20;98676.00;;;;5106290;28;20259;-78
2022/11/17 00:09:23;;;;;;;2.97;1.10;;;;;16.10;98668.00;;;;5091056;27;20729;-79
2022/11/17 00:14:39;;;;;;;2.08;1.42;;;;;16.10;98663.00;;;;5101961;28;20693;-78
2022/11/17 00:17:09;;;;;;;2.70;1.27;;;;;16.10;98639.00;;;;5095100;27;20568;-78
2022/11/17 00:22:21;;;;;;;4.43;1.50;;;;;16.10;98632.00;;;;5106067;28;20333;-79
2022/11/17 00:24:49;;;;;;;2.47;1.65;;;;;16.10;98638.00;;;;5092859;28;20190;-79
2022/11/17 00:27:17;;;;;;;5.18;1.98;;;;;16.10;98619.00;;;;5105800;27;20201;-79
2022/11/17 00:29:45;;;;;;;4.15;1.88;;;;;16.10;98607.00;;;;5110388;28;20205;-79
2022/11/17 00:34:58;;;;;;;2.83;1.50;;;;;16.10;98597.00;;;;5098495;28;20236;-79
2022/11/17 00:37:26;;;;;;;5.80;2.13;;;;;16.10;98573.00;;;;5099358;27;20198;-80
2022/11/17 00:39:53;;;;;;;2.70;1.38;;;;;16.00;98566.00;;;;5099043;28;20202;-81
2022/11/17 00:42:22;;;;;;;2.45;1.40;;;;;16.00;98560.00;;;;5095159;27;20205;-80
2022/11/17 00:44:49;;;;;;;1.70;1.20;;;;;16.10;98555.00;;;;5099474;28;20228;-79
2022/11/17 00:47:16;;;;;;;3.42;1.15;;;;;16.10;98553.00;;;;5094537;28;20202;-80
2022/11/17 00:49:44;;;;;;;5.38;1.20;;;;;16.10;98550.00;;;;5098092;28;20221;-79
2022/11/17 00:52:11;;;;;;;4.22;1.52;;;;;16.10;98534.00;;;;5100544;27;20206;-80
2022/11/17 00:54:38;;;;;;;2.10;1.23;;;;;16.10;98525.00;;;;5098542;27;20201;-79
2022/11/17 00:57:05;;;;;;;2.03;1.08;;;;;16.00;98510.00;;;;5093261;28;20621;-76
2022/11/17 00:59:34;;;;;;;5.95;1.40;;;;;16.00;98500.00;;;;5093770;28;20409;-77
2022/11/17 01:02:01;;;;;;;2.63;1.20;;;;;16.10;98508.00;;;;5089792;28;20695;-77
2022/11/17 01:04:28;;;;;;;2.10;1.38;;;;;16.10;98499.00;;;;5091366;28;20194;-76
2022/11/17 01:06:56;;;;;;;1.60;1.42;;;;;16.10;98492.00;;;;5108925;28;20198;-77
2022/11/17 01:09:24;;;;;;;2.90;1.35;;;;;16.10;98485.00;;;;5095290;28;20198;-77
2022/11/17 01:11:53;;;;;;;1.38;0.95;;;;;16.10;98478.00;;;;5091977;28;20911;-77
2022/11/17 01:14:23;;;;;;;1.58;1.30;;;;;16.00;98480.00;;;;5088696;28;20206;-77
2022/11/17 01:16:52;;;;;;;2.45;1.10;;;;;16.10;98472.00;;;;5089375;28;20197;-78
2022/11/17 01:19:20;;;;;;;2.50;1.33;;;;;16.10;98471.00;;;;5096625;27;20599;-78
2022/11/17 01:21:48;;;;;;;3.42;1.13;;;;;16.10;98467.00;;;;5099396;28;20221;-77
2022/11/17 01:24:16;;;;;;;2.20;1.02;;;;;16.10;98452.00;;;;5096720;28;20209;-78
2022/11/17 01:26:45;;;;;;;2.60;1.17;;;;;16.10;98446.00;;;;5100679;27;20214;-77
2022/11/17 01:29:15;;;;;;;1.55;0.98;;;;;16.10;98443.00;;;;5107278;27;20189;-78
2022/11/17 01:31:43;;;;;;;3.20;1.00;;;;;16.10;98445.00;;;;5109927;28;20194;-77
2022/11/17 01:34:12;;;;;;;1.65;1.00;;;;;16.10;98446.00;;;;5108934;28;20221;-77
2022/11/17 01:39:29;;;;;;;1.48;1.20;;;;;16.10;98464.00;;;;5093068;28;20731;-77
2022/11/17 01:41:57;;;;;;;1.50;0.85;;;;;16.10;98447.00;;;;5089005;28;20229;-77
2022/11/17 01:44:54;;;;;;;2.05;0.93;;;;;16.00;98457.00;;;;5097688;28;20228;-78
2022/11/17 01:47:25;;;;;;;1.83;0.93;;;;;16.10;98454.00;;;;5101209;28;20213;-78
2022/11/17 01:49:58;;;;;;;1.40;0.85;;;;;16.10;98450.00;;;;5100196;28;20714;-78
2022/11/17 01:52:26;;;;;;;0.90;0.73;;;;;16.10;98443.00;;;;5108632;28;20204;-78
2022/11/17 01:54:55;;;;;;;3.08;1.30;;;;;16.10;98451.00;;;;5108693;28;20205;-77
2022/11/17 01:57:26;;;;;;;1.92;1.35;;;;;16.10;98430.00;;;;5091706;28;20567;-78
2022/11/17 01:59:57;;;;;;;1.70;1.30;;;;;16.10;98433.00;;;;5103031;28;20198;-76
2022/11/17 02:02:24;;;;;;;1.30;0.70;;;;;16.20;98426.00;;;;5106651;28;20236;-77
2022/11/17 02:05:01;;;;;;;2.22;0.90;;;;;16.10;98428.00;;;;5107862;27;20193;-77
2022/11/17 02:07:31;;;;;;;2.53;1.00;;;;;16.20;98419.00;;;;5103693;28;20218;-77
2022/11/17 02:10:01;;;;;;;1.52;1.08;;;;;16.20;98421.00;;;;5088999;28;20201;-77
2022/11/17 02:12:30;;;;;;;1.15;0.80;;;;;16.30;98408.00;;;;5090079;28;20206;-77
2022/11/17 02:14:58;;;;;;;2.17;0.80;;;;;16.30;98418.00;;;;5103164;27;20189;-77
2022/11/17 02:17:34;;;;;;;2.05;1.00;;;;;16.20;98416.00;;;;5089437;28;20213;-77
2022/11/17 02:20:07;;;;;;;1.77;1.10;;;;;16.30;98411.00;;;;5107584;28;20197;-77
2022/11/17 02:23:13;;;;;;;2.35;1.20;;;;;16.30;98396.00;;;;5109207;28;20675;-77
2022/11/17 02:26:15;;;;;;;0.95;0.80;;;;;16.20;98389.00;;;;5108751;28;20197;-78
2022/11/17 02:28:51;;;;;;;0.85;0.80;;;;;16.30;98392.00;;;;5063897;28;20198;-77
2022/11/17 02:31:25;;;;;;;1.73;0.90;;;;;16.30;98377.00;;;;5096907;28;20582;-77
2022/11/17 02:34:04;;;;;;;2.17;1.05;;;;;16.30;98381.00;;;;5099607;28;20216;-78
2022/11/17 02:36:36;;;;;;;3.25;0.77;;;;;16.30;98388.00;;;;5056740;28;20202;-78
2022/11/17 02:39:11;;;;;;;1.90;0.80;;;;;16.30;98376.00;;;;5052367;28;20286;-77
2022/11/17 02:41:45;;;;;;;1.00;0.70;;;;;16.30;98374.00;;;;5047448;28;20219;-77
2022/11/17 02:44:20;;;;;;;1.83;1.00;;;;;16.30;98373.00;;;;5051376;28;20195;-77
2022/11/17 02:46:53;;;;;;;2.00;0.93;;;;;16.30;98377.00;;;;5054168;28;20198;-78
2022/11/17 02:49:24;;;;;;;1.35;0.80;;;;;16.40;98360.00;;;;5050716;28;20218;-77
2022/11/17 02:51:54;;;;;;;1.88;0.80;;;;;16.40;98367.00;;;;5056146;28;20683;-77
2022/11/17 02:54:22;;;;;;;2.03;0.98;;;;;16.40;98362.00;;;;5047191;28;20204;-78
2022/11/17 02:56:50;;;;;;;2.15;0.93;;;;;16.40;98361.00;;;;5064005;28;20202;-78
2022/11/17 02:59:22;;;;;;;1.90;0.80;;;;;16.40;98351.00;;;;5049463;28;20200;-77
2022/11/17 03:02:14;;;;;;;1.05;0.75;;;;;16.30;98364.00;;;;5051797;28;20693;-77
2022/11/17 03:04:53;;;;;;;1.27;0.73;;;;;16.40;98350.00;;;;5062280;28;20218;-77
2022/11/17 03:07:39;;;;;;;3.03;0.95;;;;;16.30;98349.00;;;;5062563;28;20188;-77
2022/11/17 03:10:14;;;;;;;2.20;0.70;;;;;16.40;98350.00;;;;5046950;28;20218;-77
2022/11/17 03:12:47;;;;;;;1.90;1.00;;;;;16.40;98339.00;;;;5047513;28;20681;-77
2022/11/17 03:15:27;;;;;;;1.00;0.60;;;;;16.30;98337.00;;;;5046744;28;20257;-78
2022/11/17 03:18:04;;;;;;;1.05;0.57;;;;;16.40;98335.00;;;;5047244;28;20199;-77
2022/11/17 03:20:40;;;;;;;1.98;0.80;;;;;16.40;98325.00;;;;5053429;28;20206;-77
2022/11/17 03:23:13;;;;;;;0.98;0.52;;;;;16.40;98323.00;;;;5047084;28;20195;-77
2022/11/17 03:25:45;;;;;;;1.48;0.82;;;;;16.40;98315.00;;;;5047351;28;20218;-77
2022/11/17 03:28:14;;;;;;;1.08;0.57;;;;;16.40;98319.00;;;;5046659;28;20196;-77
2022/11/17 03:30:47;;;;;;;0.70;0.52;;;;;16.40;98323.00;;;;5047233;28;20200;-77
2022/11/17 03:33:18;;;;;;;1.77;0.80;;;;;16.50;98314.00;;;;5047195;28;20206;-77
2022/11/17 03:35:52;;;;;;;0.95;0.82;;;;;16.50;98315.00;;;;5079588;28;20609;-77
2022/11/17 03:38:23;;;;;;;1.20;0.90;;;;;16.50;98308.00;;;;5092319;28;20204;-77
2022/11/17 03:40:52;;;;;;;1.23;0.70;;;;;16.50;98308.00;;;;5091329;28;20197;-77
2022/11/17 03:43:21;;;;;;;2.75;0.77;;;;;16.50;98318.00;;;;5093209;28;20559;-76
2022/11/17 03:45:53;;;;;;;0.73;0.50;;;;;16.50;98311.00;;;;5091226;28;20190;-78
2022/11/17 03:48:25;;;;;;;1.05;0.68;;;;;16.50;98304.00;;;;5090254;28;20210;-77
2022/11/17 03:50:58;;;;;;;1.38;0.60;;;;;16.50;98300.00;;;;5098765;27;20201;-77
2022/11/17 03:53:26;;;;;;;2.40;0.70;;;;;16.60;98300.00;;;;5109929;28;20193;-77
2022/11/17 03:55:58;;;;;;;1.02;0.50;;;;;16.60;98300.00;;;;5104135;28;20228;-77
2022/11/17 03:58:31;;;;;;;0.80;0.50;;;;;16.60;98293.00;;;;5096845;28;20564;-77
2022/11/17 04:01:02;;;;;;;0.65;0.50;;;;;16.60;98293.00;;;;5095270;28;20202;-77
2022/11/17 04:03:32;;;;;;;1.05;0.55;;;;;16.60;98284.00;;;;5092632;27;20198;-76
2022/11/17 04:06:00;;;;;;;2.03;0.70;;;;;16.60;98283.00;;;;5110940;28;20199;-77
2022/11/17 04:08:29;;;;;;;2.05;0.75;;;;;16.60;98273.00;;;;5098915;28;20669;-76
2022/11/17 04:16:27;;;;;;;0.50;0.40;;;;;16.60;98266.00;;;;5099496;28;20224;-77
2022/11/17 04:18:54;;;;;;;0.68;0.50;;;;;16.60;98267.00;;;;5111902;28;20190;-77
2022/11/17 04:21:21;;;;;;;1.10;0.82;;;;;16.60;98264.00;;;;5108321;28;20222;-77
2022/11/17 04:23:49;;;;;;;0.63;0.40;;;;;16.60;98258.00;;;;5090590;28;20212;-76
2022/11/17 04:29:01;;;;;;;1.58;0.70;;;;;16.60;98257.00;;;;5097052;28;20228;-76
2022/11/17 04:31:31;;;;;;;2.58;0.55;;;;;16.60;98250.00;;;;5110711;28;20654;-77
2022/11/17 04:34:00;;;;;;;2.30;0.65;;;;;16.60;98247.00;;;;5104697;28;20202;-78
2022/11/17 04:36:29;;;;;;;1.10;0.50;;;;;16.60;98241.00;;;;5107089;28;20190;-77
2022/11/17 04:38:58;;;;;;;1.40;0.63;;;;;16.60;98236.00;;;;5102458;28;20193;-77
2022/11/17 04:44:14;;;;;;;2.00;0.75;;;;;16.60;98222.00;;;;5090860;28;20335;-77
2022/11/17 04:46:44;;;;;;;1.35;0.38;;;;;16.60;98226.00;;;;5088994;28;20209;-77
2022/11/17 04:49:12;;;;;;;2.30;0.35;;;;;16.60;98211.00;;;;5095931;28;20234;-77
2022/11/17 04:51:40;;;;;;;0.85;0.60;;;;;16.60;98221.00;;;;5091507;28;20198;-77
2022/11/17 04:54:09;;;;;;;2.35;0.60;;;;;16.60;98219.00;;;;5100275;28;20198;-77
2022/11/17 04:56:36;;;;;;;1.38;0.50;;;;;16.60;98209.00;;;;5097378;28;20652;-77
2022/11/17 04:59:04;;;;;;;1.98;0.40;;;;;16.60;98206.00;;;;5096084;27;20652;-77
2022/11/17 05:01:32;;;;;;;2.25;1.10;;;;;16.60;98203.00;;;;5089465;28;21049;-78
2022/11/17 05:04:03;;;;;;;1.48;0.75;;;;;16.60;98200.00;;;;5094653;28;20205;-78
2022/11/17 05:06:32;;;;;;;1.65;0.28;;;;;16.60;98206.00;;;;5089450;28;20197;-78
2022/11/17 05:09:01;;;;;;;1.63;0.50;;;;;16.60;98207.00;;;;5101713;28;20210;-77
2022/11/17 05:14:15;;;;;;;0.65;0.35;;;;;16.60;98203.00;;;;5104103;28;20200;-77
2022/11/17 05:19:30;;;;;;;1.40;0.60;;;;;16.60;98207.00;;;;5108371;28;20212;-77
2022/11/17 05:21:57;;;;;;;2.95;0.47;;;;;16.60;98197.00;;;;5106235;28;20715;-78
2022/11/17 05:24:25;;;;;;;0.90;0.50;;;;;16.60;98198.00;;;;5096049;27;20358;-77
2022/11/17 05:26:52;;;;;;;0.73;0.50;;;;;16.60;98202.00;;;;5097556;28;20194;-77
2022/11/17 05:29:21;;;;;;;3.00;0.80;;;;;16.60;98193.00;;;;5100231;28;20213;-78
2022/11/17 05:31:49;;;;;;;1.10;0.50;;;;;16.60;98193.00;;;;5103441;28;20225;-78
2022/11/17 05:34:17;;;;;;;1.27;0.70;;;;;16.60;98181.00;;;;5096989;28;20193;-79
2022/11/17 05:36:46;;;;;;;1.02;0.60;;;;;16.60;98186.00;;;;5092787;28;20210;-78
2022/11/17 05:39:14;;;;;;;0.85;0.60;;;;;16.60;98184.00;;;;5109641;28;20728;-79
2022/11/17 05:41:42;;;;;;;1.50;0.80;;;;;16.60;98173.00;;;;5108573;28;20229;-79
2022/11/17 05:44:09;;;;;;;1.10;0.75;;;;;16.70;98164.00;;;;5107944;28;20201;-79
2022/11/17 05:46:36;;;;;;;0.98;0.40;;;;;16.60;98169.00;;;;5104208;28;20212;-79
2022/11/17 05:49:04;;;;;;;1.15;0.50;;;;;16.70;98168.00;;;;5105160;28;20210;-78
2022/11/17 05:51:31;;;;;;;1.67;0.63;;;;;16.70;98172.00;;;;5108713;28;20199;-78
2022/11/17 05:54:00;;;;;;;1.45;0.80;;;;;16.60;98167.00;;;;5091792;28;20206;-78
2022/11/17 05:56:38;;;;;;;1.40;0.47;;;;;16.60;98172.00;;;;5102103;27;20202;-78
2022/11/17 05:59:17;;;;;;;0.60;0.30;;;;;16.60;98169.00;;;;5101768;28;20192;-78
2022/11/17 06:01:48;;;;;;;1.20;0.50;;;;;16.60;98157.00;;;;5089267;28;20224;-79
2022/11/17 06:04:19;;;;;;;2.53;0.40;;;;;16.60;98154.00;;;;5089387;28;20210;-78
2022/11/17 06:06:48;;;;;;;1.00;0.50;;;;;16.60;98156.00;;;;5089031;27;20205;-78
2022/11/17 06:09:17;;;;;;;0.50;0.47;;;;;16.60;98168.00;;;;5099953;28;20194;-79
2022/11/17 06:11:44;;;;;;;1.52;0.50;;;;;16.60;98169.00;;;;5097157;28;20198;-79
2022/11/17 06:14:11;;;;;;;1.10;0.60;;;;;16.60;98171.00;;;;5091923;28;20586;-80
2022/11/17 06:16:45;;;;;;;2.05;0.77;;;;;16.60;98177.00;;;;5090168;28;20206;-79
2022/11/17 06:19:18;;;;;;;0.98;0.40;;;;;16.60;98188.00;;;;5097776;28;20678;-79
2022/11/17 06:21:45;;;;;;;1.50;0.63;;;;;16.60;98184.00;;;;5087901;28;20749;-79
2022/11/17 06:24:12;;;;;;;1.83;0.38;;;;;16.60;98191.00;;;;5091636;28;20198;-79
2022/11/17 06:26:42;;;;;;;0.93;0.50;;;;;16.60;98194.00;;;;5090118;28;20578;-78
2022/11/17 06:29:11;;;;;;;0.43;0.22;;;;;16.60;98202.00;;;;5098201;28;20210;-78
2022/11/17 06:31:39;;;;;;;1.45;0.40;;;;;16.60;98201.00;;;;5087797;28;20207;-80
2022/11/17 06:34:07;;;;;;;1.67;0.47;;;;;16.60;98205.00;;;;5107151;28;20209;-79
2022/11/17 06:36:34;;;;;;;2.38;0.40;;;;;16.60;98211.00;;;;5100977;28;20205;-78
2022/11/17 06:39:01;;;;;;;1.48;0.40;;;;;16.60;98210.00;;;;5101903;28;20202;-78
2022/11/17 06:41:29;;;;;;;0.77;0.40;;;;;16.70;98214.00;;;;5087371;28;20202;-78
2022/11/17 06:43:58;;;;;;;1.95;0.63;;;;;16.70;98210.00;;;;5087472;28;20365;-78
2022/11/17 06:46:36;;;;;;;0.68;0.30;;;;;16.70;98209.00;;;;5088554;28;20210;-78
2022/11/17 06:49:04;;;;;;;1.00;0.32;;;;;16.70;98215.00;;;;5087909;28;20287;-77
2022/11/17 06:51:32;;;;;;;2.60;0.57;;;;;16.70;98209.00;;;;5087600;28;20224;-77
2022/11/17 06:53:59;;;;;;;1.48;0.20;;;;;16.70;98211.00;;;;5092143;28;20279;-78
2022/11/17 06:56:27;;;;;;;1.00;0.40;;;;;16.70;98222.00;;;;5095121;28;20201;-78
2022/11/17 06:58:55;;;;;;;2.60;0.80;;;;;16.70;98221.00;;;;5087911;28;20202;-78
2022/11/17 07:01:23;;;;;;;3.30;0.68;;;;;16.70;98224.00;;;;5086636;28;20243;-77
2022/11/17 07:03:51;;;;;;;2.60;0.50;;;;;16.70;98220.00;;;;5090946;28;20221;-78
2022/11/17 07:06:18;;;;;;;1.45;0.30;;;;;16.70;98235.00;;;;5100661;28;20198;-79
2022/11/17 07:08:46;;;;;;;2.92;0.70;;;;;16.70;98235.00;;;;5097422;28;20253;-79
2022/11/17 07:11:15;;;;;;;1.42;0.43;;;;;16.70;98237.00;;;;5105978;28;20210;-78
2022/11/17 07:13:43;;;;;;;2.00;0.60;;;;;16.70;98243.00;;;;5111914;28;20221;-78
2022/11/17 07:16:12;;;;;;;2.03;0.40;;;;;16.70;98244.00;;;;5113083;28;20551;-79
2022/11/17 07:18:42;;;;;;;1.70;0.40;;;;;16.70;98248.00;;;;5109587;28;20231;-78
2022/11/17 07:21:10;;;;;;;1.40;0.25;;;;;16.70;98250.00;;;;5103868;28;20201;-78
2022/11/17 07:23:39;;;;;;;1.58;0.50;;;;;16.70;98246.00;;;;5112677;28;20709;-78
2022/11/17 07:26:07;;;;;;;2.40;0.63;;;;;16.70;98241.00;;;;5111686;28;20229;-78
2022/11/17 07:28:35;;;;;;;3.65;0.60;;;;;16.70;98246.00;;;;5112044;28;20209;-78
2022/11/17 07:31:04;;;;;;;0.57;0.40;;;;;16.70;98255.00;;;;5112882;28;20558;-78
2022/11/17 07:33:31;;;;;;;2.10;0.30;;;;;16.70;98252.00;;;;5111678;28;20197;-78
2022/11/17 07:36:04;;;;;;;1.90;0.60;;;;;16.60;98250.00;;;;5106773;28;20599;-78
2022/11/17 07:38:32;;;;;;;1.35;0.30;;;;;16.70;98265.00;;;;5091442;28;20194;-77
2022/11/17 07:41:00;;;;;;;1.50;0.40;;;;;16.60;98268.00;;;;5091723;28;20660;-78
2022/11/17 07:43:27;;;;;;;2.03;0.40;;;;;16.60;98271.00;;;;5091783;28;20761;-78
2022/11/17 07:45:55;;;;;;;1.58;0.30;;;;;16.60;98271.00;;;;5091104;28;20206;-78
2022/11/17 07:48:22;;;;;;;2.28;0.47;;;;;16.60;98265.00;;;;5090973;28;20214;-78
2022/11/17 07:50:49;;;;;;;0.90;0.32;;;;;16.60;98281.00;;;;5092127;28;20202;-79
2022/11/17 07:53:18;;;;;;;1.85;0.55;;;;;16.60;98283.00;;;;5091752;28;20202;-79
2022/11/17 07:55:45;;;;;;;2.17;0.32;;;;;16.60;98289.00;;;;5091560;28;20659;-79
2022/11/17 07:58:12;;;;;;;1.95;0.50;;;;;16.60;98282.00;;;;5091138;28;20198;-79
2022/11/17 08:00:40;;;;;;;0.85;0.30;;;;;16.50;98291.00;;;;5091550;28;20206;-79
2022/11/17 08:03:08;;;;;;;2.83;1.13;;;;;16.50;98290.00;;;;5091815;28;20233;-79
2022/11/17 08:05:38;;;;;;;0.90;0.28;;;;;16.50;98288.00;;;;5107450;28;20570;-78
2022/11/17 08:08:08;;;;;;;0.85;0.20;;;;;16.50;98290.00;;;;5111377;28;20193;-79
2022/11/17 08:10:36;;;;;;;0.90;0.20;;;;;16.50;98286.00;;;;5100374;28;20811;-78
2022/11/17 08:13:04;;;;;;;0.68;0.20;;;;;16.50;98295.00;;;;5091008;28;20206;-78
2022/11/17 08:15:31;;;;;;;1.88;0.40;;;;;16.50;98297.00;;;;5091306;28;20198;-79
2022/11/17 08:18:00;;;;;;;2.38;0.40;;;;;16.50;98294.00;;;;5090998;28;20280;-78
2022/11/17 08:20:28;;;;;;;1.30;0.47;;;;;16.50;98303.00;;;;5090290;28;20588;-78
2022/11/17 08:22:56;;;;;;;2.15;0.30;;;;;16.50;98301.00;;;;5091259;28;20237;-77
2022/11/17 08:25:24;;;;;;;2.13;0.30;;;;;16.40;98308.00;;;;5090211;28;20198;-78
2022/11/17 08:27:56;;;;;;;0.68;0.20;;;;;16.40;98303.00;;;;5091399;28;20210;-79
2022/11/17 08:30:24;;;;;;;0.63;0.10;;;;;16.50;98301.00;;;;5090193;28;20206;-78
2022/11/17 08:32:53;;;;;;;0.82;0.22;;;;;16.40;98306.00;;;;5090978;28;20210;-78
2022/11/17 08:35:23;;;;;;;2.28;0.38;;;;;16.40;98313.00;;;;5090135;28;20241;-78
2022/11/17 08:37:51;;;;;;;0.90;0.25;;;;;16.40;98311.00;;;;5090764;28;20191;-78
2022/11/17 08:40:19;;;;;;;2.42;0.28;;;;;16.40;98317.00;;;;5089955;28;20194;-78
2022/11/17 08:42:47;;;;;;;3.70;0.65;;;;;16.40;98319.00;;;;5090858;28;20218;-79
2022/11/17 08:45:16;;;;;;;1.33;0.50;;;;;16.40;98317.00;;;;5091195;28;20205;-79
2022/11/17 08:47:43;;;;;;;1.30;0.38;;;;;16.40;98324.00;;;;5090247;28;20198;-78
2022/11/17 08:50:10;;;;;;;1.20;0.77;;;;;16.40;98319.00;;;;5090905;28;20218;-79
2022/11/17 08:52:38;;;;;;;1.13;0.40;;;;;16.40;98324.00;;;;5090239;28;20205;-78
2022/11/17 08:55:06;;;;;;;1.92;0.50;;;;;16.40;98321.00;;;;5089612;28;20206;-77
2022/11/17 08:57:33;;;;;;;0.50;0.25;;;;;16.30;98321.00;;;;5109400;27;20549;-78
2022/11/17 09:00:01;;;;;;;1.33;0.40;;;;;16.30;98335.00;;;;5130543;27;20200;-78
2022/11/17 09:02:30;;;;;;;1.65;0.30;;;;;16.30;98335.00;;;;5093615;27;20227;-79
2022/11/17 09:04:57;;;;;;;1.15;0.50;;;;;16.30;98328.00;;;;5090022;28;20653;-77
2022/11/17 09:07:24;;;;;;;2.55;0.20;;;;;16.30;98345.00;;;;5088786;28;20201;-79
2022/11/17 09:09:52;;;;;;;1.20;0.40;;;;;16.30;98343.00;;;;5090460;28;20199;-78
2022/11/17 09:12:19;;;;;;;1.08;0.65;;;;;16.30;98350.00;;;;5089557;28;20198;-77
2022/11/17 09:14:46;;;;;;;1.58;0.38;;;;;16.30;98358.00;;;;5090135;28;20210;-79
2022/11/17 09:17:13;;;;;;;0.70;0.20;;;;;16.30;98351.00;;;;5089993;28;20194;-79
2022/11/17 09:19:42;;;;;;;1.23;0.30;;;;;16.30;98353.00;;;;5108977;28;20201;-79
2022/11/17 09:22:09;;;;;;;1.75;0.50;;;;;16.30;98359.00;;;;5110341;28;20205;-78
2022/11/17 09:24:36;;;;;;;0.60;0.30;;;;;16.30;98356.00;;;;5109647;28;20225;-78
2022/11/17 09:27:04;;;;;;;2.45;0.52;;;;;16.40;98352.00;;;;5109412;28;20194;-77
2022/11/17 09:29:31;;;;;;;1.15;0.20;;;;;16.40;98365.00;;;;5109629;28;20216;-77
2022/11/17 09:31:58;;;;;;;1.25;0.57;;;;;16.30;98365.00;;;;5109916;28;20205;-77
2022/11/17 09:34:26;;;;;;;0.32;0.10;;;;;16.40;98370.00;;;;5108315;28;20237;-77
2022/11/17 09:36:54;;;;;;;1.63;0.50;;;;;16.40;98373.00;;;;5108295;28;20189;-77
2022/11/17 09:39:22;;;;;;;0.95;0.30;;;;;16.40;98374.00;;;;5108967;28;20679;-77
2022/11/17 09:41:51;;;;;;;3.20;0.40;;;;;16.40;98382.00;;;;5109370;28;20198;-77
2022/11/17 09:44:38;;;;;;;1.70;0.30;;;;;16.30;98397.00;;;;5108596;28;20228;-77
2022/11/17 09:47:16;;;;;;;1.25;0.32;;;;;16.30;98397.00;;;;5108635;28;20219;-77
2022/11/17 09:49:52;;;;;;;1.55;0.60;;;;;16.30;98397.00;;;;5109224;28;20228;-77
2022/11/17 09:52:26;;;;;;;1.10;0.50;;;;;16.30;98402.00;;;;5107983;28;20209;-77
2022/11/17 09:54:56;;;;;;;0.80;0.20;;;;;16.40;98400.00;;;;5109113;28;20757;-78
2022/11/17 09:57:29;;;;;;;1.38;0.30;;;;;16.40;98401.00;;;;5098907;28;20198;-79
2022/11/17 10:00:13;;;;;;;0.40;0.28;;;;;16.30;98401.00;;;;5088340;28;20205;-79
2022/11/17 10:02:40;;;;;;;0.90;0.40;;;;;16.40;98408.00;;;;5088628;28;20201;-79
2022/11/17 10:05:14;;;;;;;0.60;0.20;;;;;16.30;98407.00;;;;5088097;28;20190;-79
2022/11/17 10:07:47;;;;;;;1.05;0.15;;;;;16.30;98412.00;;;;5088771;28;20607;-78
2022/11/17 10:10:19;;;;;;;0.77;0.20;;;;;16.30;98414.00;;;;5091650;28;20657;-78
2022/11/17 10:12:51;;;;;;;1.65;0.40;;;;;16.30;98425.00;;;;5088870;28;20206;-77
2022/11/17 10:15:27;;;;;;;1.83;0.75;;;;;16.30;98422.00;;;;5088095;28;20559;-77
2022/11/17 10:17:54;;;;;;;1.73;0.30;;;;;16.30;98419.00;;;;5088062;28;20197;-77
2022/11/17 10:20:21;;;;;;;0.30;0.20;;;;;16.40;98424.00;;;;5088226;28;20205;-77
2022/11/17 10:22:51;;;;;;;1.60;0.35;;;;;16.30;98425.00;;;;5088406;28;20198;-77
2022/11/17 10:25:35;;;;;;;1.52;0.38;;;;;16.30;98428.00;;;;5088054;28;20202;-78
2022/11/17 10:28:03;;;;;;;2.03;0.30;;;;;16.30;98431.00;;;;5088352;28;20255;-77
2022/11/17 10:30:31;;;;;;;1.70;0.40;;;;;16.30;98436.00;;;;5087760;28;20209;-77
2022/11/17 10:33:00;;;;;;;1.80;0.52;;;;;16.30;98434.00;;;;5087787;28;20205;-77
2022/11/17 10:35:30;;;;;;;2.95;0.40;;;;;16.30;98442.00;;;;5087623;28;20721;-77
2022/11/17 10:38:00;;;;;;;2.90;0.40;;;;;16.30;98437.00;;;;5087336;28;20197;-77
2022/11/17 10:40:30;;;;;;;0.95;0.20;;;;;16.30;98434.00;;;;5087272;28;20202;-78
2022/11/17 10:43:05;;;;;;;1.65;0.50;;;;;16.30;98437.00;;;;5088776;28;20208;-77
2022/11/17 10:45:33;;;;;;;1.00;0.50;;;;;16.30;98439.00;;;;5087581;28;20202;-78
2022/11/17 10:48:18;;;;;;;2.05;0.47;;;;;16.20;98452.00;;;;5087373;28;20586;-77
2022/11/17 10:50:52;;;;;;;0.80;0.32;;;;;16.30;98441.00;;;;5087897;28;20202;-77
2022/11/17 10:53:27;;;;;;;2.00;0.40;;;;;16.30;98450.00;;;;5087119;28;20197;-77
2022/11/17 10:55:58;;;;;;;1.63;0.30;;;;;16.30;98452.00;;;;5088199;28;20202;-77
2022/11/17 10:58:27;;;;;;;1.42;0.45;;;;;16.30;98449.00;;;;5086780;28;20194;-77
2022/11/17 11:00:57;;;;;;;2.20;0.40;;;;;16.40;98447.00;;;;5100694;28;20209;-77
2022/11/17 11:03:27;;;;;;;2.38;0.25;;;;;16.40;98454.00;;;;5107680;28;20217;-77
2022/11/17 11:06:00;;;;;;;2.42;0.43;;;;;16.30;98454.00;;;;5108273;28;20201;-77
2022/11/17 11:08:34;;;;;;;0.98;0.40;;;;;16.40;98449.00;;;;5107040;28;20202;-77
2022/11/17 11:11:07;;;;;;;3.80;0.40;;;;;16.40;98463.00;;;;5107540;28;20200;-77
2022/11/17 11:13:41;;;;;;;1.25;0.30;;;;;16.40;98457.00;;;;5107166;28;20302;-78
2022/11/17 11:16:10;;;;;;;4.07;0.85;;;;;16.40;98470.00;;;;5107896;28;20201;-77
2022/11/17 11:18:38;;;;;;;3.92;1.15;;;;;16.40;98466.00;;;;5088044;28;20198;-77
2022/11/17 11:21:15;;;;;;;2.53;0.55;;;;;16.30;98472.00;;;;5087599;28;20225;-77
2022/11/17 11:23:51;;;;;;;3.13;0.40;;;;;16.30;98475.00;;;;5087378;28;20753;-79
2022/11/17 11:26:42;;;;;;;0.73;0.40;;;;;16.30;98467.00;;;;5086746;28;20217;-78
2022/11/17 11:29:20;;;;;;;1.10;0.40;;;;;16.40;98474.00;;;;5087527;28;20194;-78
2022/11/17 11:32:00;;;;;;;0.60;0.40;;;;;16.40;98481.00;;;;5087762;28;20198;-77
2022/11/17 11:34:56;;;;;;;1.88;0.45;;;;;16.30;98494.00;;;;5087934;28;20255;-77
2022/11/17 11:37:29;;;;;;;0.25;0.15;;;;;16.40;98492.00;;;;5087002;28;20667;-77
2022/11/17 11:40:09;;;;;;;2.58;0.40;;;;;16.40;98485.00;;;;5087103;28;20210;-78
2022/11/17 11:42:52;;;;;;;0.75;0.45;;;;;16.40;98491.00;;;;5086859;28;20210;-77
2022/11/17 11:45:24;;;;;;;1.00;0.30;;;;;16.40;98499.00;;;;5086772;28;20241;-77
2022/11/17 11:48:20;;;;;;;2.47;0.50;;;;;16.30;98505.00;;;;5087681;28;20202;-77
2022/11/17 11:50:57;;;;;;;3.60;0.43;;;;;16.30;98497.00;;;;5066999;28;20210;-78
2022/11/17 11:53:38;;;;;;;1.48;0.50;;;;;16.40;98500.00;;;;5086988;28;20202;-78
2022/11/17 11:56:15;;;;;;;1.98;0.50;;;;;16.30;98508.00;;;;5087772;28;20221;-77
2022/11/17 11:58:46;;;;;;;1.25;0.40;;;;;16.40;98493.00;;;;5089721;28;20206;-77
2022/11/17 12:01:17;;;;;;;1.10;0.40;;;;;16.40;98508.00;;;;5090453;28;20202;-77
2022/11/17 12:03:52;;;;;;;2.45;0.30;;;;;16.40;98492.00;;;;5090869;28;20229;-77
2022/11/17 12:06:39;;;;;;;1.52;0.63;;;;;16.40;98504.00;;;;5090367;28;20197;-77
2022/11/17 12:09:19;;;;;;;0.77;0.22;;;;;16.30;98502.00;;;;5101867;28;20219;-77
2022/11/17 12:12:02;;;;;;;0.90;0.30;;;;;16.30;98500.00;;;;5111117;28;20197;-77
2022/11/17 12:14:31;;;;;;;1.60;0.60;;;;;16.40;98502.00;;;;5109995;28;20245;-77
2022/11/17 12:17:06;;;;;;;3.88;0.93;;;;;16.30;98518.00;;;;5111418;28;20220;-77
2022/11/17 12:19:54;;;;;;;2.53;0.40;;;;;16.20;98503.00;;;;5110893;28;20201;-77
2022/11/17 12:22:54;;;;;;;2.35;0.40;;;;;16.20;98509.00;;;;5111118;28;20201;-77
2022/11/17 12:25:27;;;;;;;2.38;0.30;;;;;16.30;98505.00;;;;5101698;28;20230;-78
2022/11/17 12:27:57;;;;;;;1.83;0.47;;;;;16.30;98517.00;;;;5090856;28;20206;-78
2022/11/17 12:30:53;;;;;;;1.67;0.40;;;;;16.20;98513.00;;;;5090533;28;20695;-78
2022/11/17 12:33:21;;;;;;;1.23;0.40;;;;;16.30;98511.00;;;;5090457;28;20202;-78
2022/11/17 12:36:25;;;;;;;1.42;0.43;;;;;16.20;98522.00;;;;5089975;28;20237;-77
2022/11/17 12:38:54;;;;;;;0.93;0.30;;;;;16.30;98519.00;;;;5091289;28;20202;-78
2022/11/17 12:41:59;;;;;;;1.58;0.50;;;;;16.20;98519.00;;;;5090286;28;20198;-78
2022/11/17 12:45:05;;;;;;;1.48;0.47;;;;;16.20;98523.00;;;;5090035;28;21023;-78
2022/11/17 12:47:33;;;;;;;1.33;0.47;;;;;16.30;98519.00;;;;4987783;28;20205;-78
2022/11/17 12:50:45;;;;;;;1.88;0.35;;;;;16.20;98519.00;;;;4988621;28;20226;-78
2022/11/17 12:53:42;;;;;;;1.33;0.65;;;;;16.20;98537.00;;;;5069190;28;20245;-78
2022/11/17 12:56:31;;;;;;;0.55;0.20;;;;;16.30;98531.00;;;;5087324;28;20203;-78
2022/11/17 12:59:10;;;;;;;3.28;0.75;;;;;16.30;98536.00;;;;5090337;28;20206;-78
2022/11/17 13:01:47;;;;;;;1.98;0.60;;;;;16.30;98554.00;;;;5089465;28;20212;-78
2022/11/17 13:04:17;;;;;;;1.95;0.52;;;;;16.30;98554.00;;;;5090180;28;20622;-78
2022/11/17 13:06:59;;;;;;;0.70;0.50;;;;;16.20;98566.00;;;;5090154;28;20241;-78
2022/11/17 13:09:32;;;;;;;1.67;0.40;;;;;16.30;98558.00;;;;5102748;28;20670;-78